createdAt,value
2023-05-10T00:01:00.907Z,22.2106
2023-05-10T00:02:04.160Z,24.0882
2023-05-10T00:03:07.643Z,18.4216
2023-05-10T00:04:10.870Z,14.3094
2023-05-10T00:05:14.129Z,18.7629
2023-05-10T00:06:15.490Z,13.9899
2023-05-10T00:07:18.723Z,18.0347
2023-05-10T00:08:22.157Z,13.6896
2023-05-10T00:09:25.376Z,15.8068
2023-05-10T00:10:28.616Z,15.6342
2023-05-10T00:11:32.021Z,15.3571
2023-05-10T00:12:35.228Z,16.1412
2023-05-10T00:13:38.892Z,12.4525
2023-05-10T00:14:42.086Z,12.3744
2023-05-10T00:15:45.311Z,14.4891
2023-05-10T00:16:48.690Z,12.3133
2023-05-10T00:17:51.938Z,13.5353
2023-05-10T00:18:55.383Z,13.7993
2023-05-10T00:19:58.609Z,11.4585
2023-05-10T00:21:02.058Z,10.2666
2023-05-10T00:22:05.292Z,10.0787
2023-05-10T00:23:08.538Z,11.2212
2023-05-10T00:24:11.972Z,9.2415
2023-05-10T00:25:15.203Z,10.2507
2023-05-10T00:26:18.622Z,7.6454
2023-05-10T00:27:21.851Z,10.8285
2023-05-10T00:28:25.078Z,10.9887
2023-05-10T00:29:28.316Z,12.5419
2023-05-10T00:30:31.543Z,9.9640
2023-05-10T00:31:35.117Z,8.7814
2023-05-10T00:32:38.354Z,6.0641
2023-05-10T00:33:41.593Z,9.0944
2023-05-10T00:34:44.829Z,7.5552
2023-05-10T00:35:48.035Z,9.2206
2023-05-10T00:36:51.309Z,7.7312
2023-05-10T00:37:54.494Z,6.6990
2023-05-10T00:38:55.774Z,8.5642
2023-05-10T00:39:59.052Z,8.2989
2023-05-10T00:41:02.646Z,4.8430
2023-05-10T00:42:05.901Z,6.7500
2023-05-10T00:43:09.117Z,12.4186
2023-05-10T00:44:09.630Z,9.4511
2023-05-10T00:45:12.956Z,7.3885
2023-05-10T00:46:16.604Z,5.4586
2023-05-10T00:47:19.897Z,6.8587
2023-05-10T00:48:23.141Z,6.1817
2023-05-10T00:49:26.397Z,6.7527
2023-05-10T00:50:29.617Z,6.2390
2023-05-10T00:51:32.882Z,8.1284
2023-05-10T00:52:36.124Z,6.5262
2023-05-10T00:53:39.378Z,7.0391
2023-05-10T00:54:42.611Z,7.1555
2023-05-10T00:55:45.835Z,7.2726
2023-05-10T00:56:49.071Z,7.7855
2023-05-10T00:57:52.294Z,7.0985
2023-05-10T00:58:55.743Z,11.3494
2023-05-10T00:59:58.947Z,6.5304
2023-05-10T01:01:02.207Z,5.5566
2023-05-10T01:02:05.791Z,7.0608
2023-05-10T01:03:09.151Z,6.5791
2023-05-10T01:04:12.480Z,7.5903
2023-05-10T01:05:15.749Z,7.2124
2023-05-10T01:06:19.236Z,4.7846
2023-05-10T01:07:22.488Z,8.3614
2023-05-10T01:08:25.709Z,6.1823
2023-05-10T01:09:28.949Z,9.1610
2023-05-10T01:10:32.168Z,6.8707
2023-05-10T01:11:35.687Z,7.7498
2023-05-10T01:12:39.115Z,5.6121
2023-05-10T01:13:42.338Z,6.2219
2023-05-10T01:14:45.562Z,8.3046
2023-05-10T01:15:48.791Z,10.1900
2023-05-10T01:16:51.984Z,6.1852
2023-05-10T01:17:55.220Z,3.7798
2023-05-10T01:18:58.687Z,7.8135
2023-05-10T01:20:01.923Z,5.9552
2023-05-10T01:21:05.110Z,8.7601
2023-05-10T01:22:08.610Z,10.4400
2023-05-10T01:23:11.844Z,10.4791
2023-05-10T01:24:15.034Z,8.5864
2023-05-10T01:25:18.262Z,8.1899
2023-05-10T01:26:21.462Z,10.7087
2023-05-10T01:27:24.688Z,9.6229
2023-05-10T01:28:27.926Z,8.5305
2023-05-10T01:29:31.408Z,12.1488
2023-05-10T01:30:34.616Z,10.5931
2023-05-10T01:31:37.874Z,8.6478
2023-05-10T01:32:41.069Z,11.2235
2023-05-10T01:33:44.320Z,10.1918
2023-05-10T01:34:47.768Z,7.6392
2023-05-10T01:35:51.336Z,9.1680
2023-05-10T01:36:54.549Z,8.7077
2023-05-10T01:37:57.811Z,10.5876
2023-05-10T01:39:01.301Z,9.8661
2023-05-10T01:40:04.566Z,10.0733
2023-05-10T01:41:07.770Z,8.4741
2023-05-10T01:42:10.980Z,6.9869
2023-05-10T01:43:14.226Z,10.4202
2023-05-10T01:44:17.674Z,12.4908
2023-05-10T01:45:20.876Z,5.6123
2023-05-10T01:46:24.139Z,5.8413
2023-05-10T01:47:27.367Z,11.8467
2023-05-10T01:48:30.588Z,8.5901
2023-05-10T01:49:34.053Z,11.2932
2023-05-10T01:50:37.256Z,11.1088
2023-05-10T01:51:41.470Z,12.3129
2023-05-10T01:52:41.005Z,13.5834
2023-05-10T01:53:44.231Z,12.5924
2023-05-10T01:54:47.481Z,8.5900
2023-05-10T01:55:50.697Z,10.9875
2023-05-10T01:56:54.140Z,12.8959
2023-05-10T01:57:57.359Z,10.9988
2023-05-10T01:59:00.548Z,10.9367
2023-05-10T02:00:03.772Z,13.3435
2023-05-10T02:01:07.093Z,15.0071
2023-05-10T02:02:10.308Z,9.9505
2023-05-10T02:03:13.564Z,8.1308
2023-05-10T02:04:16.752Z,9.9026
2023-05-10T02:05:30.849Z,9.4782
2023-05-10T02:06:34.039Z,13.1205
2023-05-10T02:07:37.518Z,9.8115
2023-05-10T02:08:40.744Z,10.0231
2023-05-10T02:09:44.314Z,7.1730
2023-05-10T02:10:47.726Z,5.9943
2023-05-10T02:11:50.932Z,7.9600
2023-05-10T02:12:54.201Z,9.2203
2023-05-10T02:13:57.404Z,9.4981
2023-05-10T02:15:00.640Z,7.3870
2023-05-10T02:16:03.840Z,7.7312
2023-05-10T02:17:07.055Z,4.9250
2023-05-10T02:18:10.368Z,5.7839
2023-05-10T02:19:13.566Z,10.7000
2023-05-10T02:20:17.222Z,11.8078
2023-05-10T02:21:20.597Z,10.3643
2023-05-10T02:22:23.825Z,6.4700
2023-05-10T02:23:27.053Z,3.7796
2023-05-10T02:24:30.248Z,8.8732
2023-05-10T02:25:33.703Z,9.2449
2023-05-10T02:26:36.887Z,8.1913
2023-05-10T02:27:40.392Z,5.3040
2023-05-10T02:28:43.610Z,4.9250
2023-05-10T02:29:46.812Z,5.7828
2023-05-10T02:30:50.009Z,9.4511
2023-05-10T02:31:53.228Z,10.0281
2023-05-10T02:32:56.457Z,6.6971
2023-05-10T02:33:59.644Z,5.9567
2023-05-10T02:35:00.803Z,4.4417
2023-05-10T02:36:04.024Z,7.1573
2023-05-10T02:37:07.241Z,6.3569
2023-05-10T02:38:10.796Z,7.0598
2023-05-10T02:39:13.990Z,7.3325
2023-05-10T02:40:17.462Z,7.9617
2023-05-10T02:41:20.783Z,6.6074
2023-05-10T02:42:24.005Z,5.6679
2023-05-10T02:43:27.233Z,5.3270
2023-05-10T02:44:30.446Z,4.8084
2023-05-10T02:45:33.666Z,4.3516
2023-05-10T02:46:36.894Z,3.6662
2023-05-10T02:47:40.123Z,4.9790
2023-05-10T02:48:43.392Z,4.1206
2023-05-10T02:49:46.595Z,5.0982
2023-05-10T02:50:50.146Z,5.7536
2023-05-10T02:51:53.341Z,5.9556
2023-05-10T02:52:56.823Z,4.5634
2023-05-10T02:54:00.046Z,5.4972
2023-05-10T02:55:03.521Z,4.2770
2023-05-10T02:56:06.714Z,5.0402
2023-05-10T02:57:09.948Z,5.4413
2023-05-10T02:58:13.211Z,4.4065
2023-05-10T02:59:16.466Z,5.3258
2023-05-10T03:00:19.915Z,9.0059
2023-05-10T03:01:23.177Z,5.6703
2023-05-10T03:02:26.403Z,6.4704
2023-05-10T03:03:29.942Z,8.6540
2023-05-10T03:04:33.196Z,10.0219
2023-05-10T03:05:36.382Z,5.3814
2023-05-10T03:06:39.662Z,5.3263
2023-05-10T03:07:42.877Z,8.2979
2023-05-10T03:08:46.058Z,7.1588
2023-05-10T03:09:49.268Z,5.7290
2023-05-10T03:10:52.718Z,4.3933
2023-05-10T03:11:55.923Z,4.9262
2023-05-10T03:12:59.411Z,3.9374
2023-05-10T03:14:02.611Z,6.5823
2023-05-10T03:15:05.851Z,6.4697
2023-05-10T03:16:09.112Z,6.9867
2023-05-10T03:17:12.315Z,6.1237
2023-05-10T03:18:15.507Z,7.3880
2023-05-10T03:19:18.711Z,7.1049
2023-05-10T03:20:20.035Z,4.7240
2023-05-10T03:21:23.255Z,6.2977
2023-05-10T03:22:26.490Z,5.5524
2023-05-10T03:23:29.695Z,4.2942
2023-05-10T03:24:32.922Z,6.4724
2023-05-10T03:25:36.204Z,8.0077
2023-05-10T03:26:39.440Z,6.0133
2023-05-10T03:27:42.650Z,5.3820
2023-05-10T03:28:45.873Z,6.8743
2023-05-10T03:29:49.102Z,8.9295
2023-05-10T03:30:52.451Z,10.1693
2023-05-10T03:31:55.819Z,3.6670
2023-05-10T03:32:59.302Z,10.0146
2023-05-10T03:34:02.582Z,10.8114
2023-05-10T03:35:05.792Z,7.4452
2023-05-10T03:36:09.244Z,3.8200
2023-05-10T03:37:12.485Z,8.8762
2023-05-10T03:38:16.021Z,6.3237
2023-05-10T03:39:19.232Z,9.1621
2023-05-10T03:40:22.673Z,8.6155
2023-05-10T03:41:25.873Z,7.8500
2023-05-10T03:42:29.061Z,8.5342
2023-05-10T03:43:32.498Z,7.6487
2023-05-10T03:44:35.732Z,6.1869
2023-05-10T03:45:39.038Z,6.5751
2023-05-10T03:46:42.501Z,6.1041
2023-05-10T03:47:45.749Z,8.8753
2023-05-10T03:48:48.967Z,7.3839
2023-05-10T03:49:52.199Z,6.6981
2023-05-10T03:50:55.595Z,10.2218
2023-05-10T03:51:58.767Z,8.3049
2023-05-10T03:53:02.223Z,5.8784
2023-05-10T03:54:05.427Z,6.4136
2023-05-10T03:55:08.659Z,5.6126
2023-05-10T03:56:11.897Z,5.8366
2023-05-10T03:57:15.090Z,6.7028
2023-05-10T03:58:18.569Z,4.9061
2023-05-10T03:59:21.785Z,4.8679
2023-05-10T04:00:25.024Z,4.5230
2023-05-10T04:01:28.221Z,3.7217
2023-05-10T04:02:31.545Z,4.4110
2023-05-10T04:03:34.885Z,4.7957
2023-05-10T04:04:38.066Z,5.5535
2023-05-10T04:05:41.302Z,6.1263
2023-05-10T04:06:44.512Z,7.2171
2023-05-10T04:07:47.730Z,7.5592
2023-05-10T04:08:50.959Z,9.6180
2023-05-10T04:09:54.150Z,7.7326
2023-05-10T04:10:57.375Z,7.0460
2023-05-10T04:12:00.602Z,12.1322
2023-05-10T04:13:03.827Z,5.9583
2023-05-10T04:14:07.090Z,8.5836
2023-05-10T04:15:10.296Z,7.0425
2023-05-10T04:16:13.489Z,6.0156
2023-05-10T04:17:16.895Z,6.4005
2023-05-10T04:18:20.381Z,7.2943
2023-05-10T04:19:23.605Z,4.6954
2023-05-10T04:20:26.823Z,5.2666
2023-05-10T04:21:30.268Z,4.0540
2023-05-10T04:22:33.418Z,3.0355
2023-05-10T04:23:36.862Z,3.3101
2023-05-10T04:24:40.082Z,4.2961
2023-05-10T04:25:43.286Z,5.1537
2023-05-10T04:26:46.487Z,5.8411
2023-05-10T04:27:49.735Z,5.7839
2023-05-10T04:28:52.944Z,6.1278
2023-05-10T04:29:56.177Z,8.4183
2023-05-10T04:30:59.437Z,6.7554
2023-05-10T04:32:02.605Z,7.9605
2023-05-10T04:33:05.850Z,7.2160
2023-05-10T04:34:09.324Z,7.8097
2023-05-10T04:35:12.548Z,6.0685
2023-05-10T04:36:15.787Z,6.6425
2023-05-10T04:37:19.033Z,6.8129
2023-05-10T04:38:22.524Z,7.2966
2023-05-10T04:39:25.753Z,2.2900
2023-05-10T04:40:28.992Z,4.9810
2023-05-10T04:41:32.454Z,7.4737
2023-05-10T04:42:35.659Z,4.1223
2023-05-10T04:43:38.882Z,5.1547
2023-05-10T04:44:42.048Z,8.1925
2023-05-10T04:45:45.273Z,5.1555
2023-05-10T04:46:48.798Z,7.6461
2023-05-10T04:47:51.995Z,4.9782
2023-05-10T04:48:55.202Z,8.5894
2023-05-10T04:49:58.422Z,5.7254
2023-05-10T04:51:01.686Z,7.3278
2023-05-10T04:52:04.901Z,4.2360
2023-05-10T04:53:08.156Z,7.2699
2023-05-10T04:54:11.365Z,5.6693
2023-05-10T04:55:14.608Z,2.0618
2023-05-10T04:56:17.836Z,3.3211
2023-05-10T04:57:21.046Z,5.6675
2023-05-10T04:58:24.252Z,3.7224
2023-05-10T04:59:27.716Z,4.1637
2023-05-10T05:00:30.894Z,6.7594
2023-05-10T05:01:34.178Z,5.2122
2023-05-10T05:02:37.483Z,7.4411
2023-05-10T05:03:40.842Z,5.8862
2023-05-10T05:04:44.058Z,3.6575
2023-05-10T05:05:47.285Z,7.1025
2023-05-10T05:06:53.662Z,6.1018
2023-05-10T05:07:53.374Z,5.2599
2023-05-10T05:08:56.639Z,3.2641
2023-05-10T05:09:59.874Z,5.7812
2023-05-10T05:11:03.066Z,6.2413
2023-05-10T05:12:06.294Z,5.3831
2023-05-10T05:13:09.500Z,7.2156
2023-05-10T05:14:12.670Z,6.2456
2023-05-10T05:15:15.907Z,9.7373
2023-05-10T05:16:19.170Z,10.2441
2023-05-10T05:17:22.377Z,7.3848
2023-05-10T05:18:25.599Z,6.6442
2023-05-10T05:19:29.071Z,6.3887
2023-05-10T05:20:32.292Z,5.5528
2023-05-10T05:21:35.490Z,5.9000
2023-05-10T05:22:38.701Z,3.8950
2023-05-10T05:23:41.936Z,6.4135
2023-05-10T05:24:45.137Z,7.1003
2023-05-10T05:25:48.364Z,7.1027
2023-05-10T05:26:51.616Z,6.6397
2023-05-10T05:27:54.837Z,4.5227
2023-05-10T05:28:58.077Z,4.1227
2023-05-10T05:30:01.298Z,5.0377
2023-05-10T05:31:04.473Z,7.9056
2023-05-10T05:32:07.756Z,6.1273
2023-05-10T05:33:11.029Z,4.5769
2023-05-10T05:34:14.211Z,9.3319
2023-05-10T05:35:17.572Z,10.0226
2023-05-10T05:36:20.925Z,6.7263
2023-05-10T05:37:24.154Z,5.6130
2023-05-10T05:38:27.361Z,4.8680
2023-05-10T05:39:30.802Z,7.1308
2023-05-10T05:40:34.003Z,4.5253
2023-05-10T05:41:37.198Z,7.3908
2023-05-10T05:42:40.445Z,4.9246
2023-05-10T05:43:43.690Z,6.4679
2023-05-10T05:44:47.062Z,9.1930
2023-05-10T05:45:50.403Z,6.7021
2023-05-10T05:46:53.614Z,5.8305
2023-05-10T05:47:56.858Z,7.9038
2023-05-10T05:49:00.034Z,7.1565
2023-05-10T05:50:03.316Z,6.8725
2023-05-10T05:51:07.406Z,6.5815
2023-05-10T05:52:07.271Z,5.8991
2023-05-10T05:53:10.492Z,6.8148
2023-05-10T05:54:13.671Z,6.8747
2023-05-10T05:55:17.213Z,8.3042
2023-05-10T05:56:20.492Z,4.9509
2023-05-10T05:57:23.713Z,8.4781
2023-05-10T05:58:26.948Z,7.1003
2023-05-10T05:59:30.202Z,5.2663
2023-05-10T06:00:33.397Z,7.0411
2023-05-10T06:01:36.614Z,7.1602
2023-05-10T06:02:40.010Z,9.0477
2023-05-10T06:03:43.405Z,7.5827
2023-05-10T06:04:46.616Z,7.3773
2023-05-10T06:05:49.872Z,7.1586
2023-05-10T06:06:53.093Z,8.3015
2023-05-10T06:07:56.328Z,8.2422
2023-05-10T06:08:59.576Z,9.1602
2023-05-10T06:10:02.820Z,12.4827
2023-05-10T06:11:05.994Z,11.2287
2023-05-10T06:12:09.547Z,12.1349
2023-05-10T06:13:12.803Z,8.7752
2023-05-10T06:14:16.296Z,5.9856
2023-05-10T06:15:19.504Z,8.5287
2023-05-10T06:16:22.776Z,6.7571
2023-05-10T06:17:26.007Z,10.3014
2023-05-10T06:18:29.235Z,9.1048
2023-05-10T06:19:32.586Z,8.5699
2023-05-10T06:20:35.800Z,12.5402
2023-05-10T06:21:39.036Z,10.4794
2023-05-10T06:22:42.240Z,10.7073
2023-05-10T06:23:45.467Z,12.5414
2023-05-10T06:24:48.709Z,14.5965
2023-05-10T06:25:51.952Z,13.7975
2023-05-10T06:26:55.189Z,12.5394
2023-05-10T06:27:58.547Z,9.1000
2023-05-10T06:29:01.778Z,11.0257
2023-05-10T06:30:12.339Z,7.0384
2023-05-10T06:31:06.812Z,8.3881
2023-05-10T06:32:10.045Z,12.4180
2023-05-10T06:33:13.358Z,7.4966
2023-05-10T06:34:16.603Z,9.2078
2023-05-10T06:35:20.209Z,23.1429
2023-05-10T06:36:23.803Z,19.5549
2023-05-10T06:37:27.075Z,17.8539
2023-05-10T06:38:30.340Z,16.9380
2023-05-10T06:39:33.805Z,11.6292
2023-05-10T06:40:37.053Z,15.6880
2023-05-10T06:41:40.340Z,12.7581
2023-05-10T06:42:43.588Z,16.4246
2023-05-10T06:43:46.815Z,11.0486
2023-05-10T06:44:50.099Z,16.1995
2023-05-10T06:45:53.412Z,18.4789
2023-05-10T06:46:56.672Z,14.2389
2023-05-10T06:47:59.949Z,8.4693
2023-05-10T06:49:03.202Z,14.8766
2023-05-10T06:50:06.458Z,14.5392
2023-05-10T06:51:09.704Z,17.1674
2023-05-10T06:52:13.183Z,18.2453
2023-05-10T06:53:16.709Z,13.6810
2023-05-10T06:54:19.933Z,13.5110
2023-05-10T06:55:23.152Z,13.9118
2023-05-10T06:56:26.380Z,17.4652
2023-05-10T06:57:31.744Z,13.3942
2023-05-10T06:58:31.784Z,12.9351
2023-05-10T06:59:35.167Z,14.2515
2023-05-10T07:00:38.540Z,12.2665
2023-05-10T07:01:41.807Z,8.5794
2023-05-10T07:02:45.037Z,11.0442
2023-05-10T07:03:48.296Z,11.4484
2023-05-10T07:04:51.606Z,9.6092
2023-05-10T07:05:54.808Z,11.3924
2023-05-10T07:06:58.291Z,10.0397
2023-05-10T07:08:01.527Z,14.1927
2023-05-10T07:09:04.802Z,12.1330
2023-05-10T07:10:08.261Z,9.8656
2023-05-10T07:11:11.506Z,7.8434
2023-05-10T07:12:15.868Z,9.4487
2023-05-10T07:13:15.752Z,6.2177
2023-05-10T07:14:19.317Z,6.2549
2023-05-10T07:15:22.572Z,9.7293
2023-05-10T07:16:25.826Z,8.7616
2023-05-10T07:17:29.144Z,12.8139
2023-05-10T07:18:32.493Z,13.8370
2023-05-10T07:19:35.710Z,14.0053
2023-05-10T07:20:38.942Z,17.3490
2023-05-10T07:21:42.186Z,13.6221
2023-05-10T07:22:45.687Z,12.4347
2023-05-10T07:23:48.918Z,12.5336
2023-05-10T07:24:52.176Z,11.7367
2023-05-10T07:25:55.406Z,14.2494
2023-05-10T07:26:58.921Z,10.2651
2023-05-10T07:28:02.147Z,9.5035
2023-05-10T07:29:05.406Z,7.7260
2023-05-10T07:30:08.881Z,11.5183
2023-05-10T07:31:12.151Z,14.2535
2023-05-10T07:32:15.455Z,8.8691
2023-05-10T07:33:18.852Z,9.8262
2023-05-10T07:34:22.114Z,12.4000
2023-05-10T07:35:25.646Z,12.3672
2023-05-10T07:36:28.904Z,13.8502
2023-05-10T07:37:32.162Z,10.7608
2023-05-10T07:38:35.413Z,15.9030
2023-05-10T07:39:38.733Z,13.3361
2023-05-10T07:40:41.968Z,15.7873
2023-05-10T07:41:45.291Z,11.8996
2023-05-10T07:42:48.488Z,9.7867
2023-05-10T07:43:51.747Z,9.6183
2023-05-10T07:44:54.995Z,9.1561
2023-05-10T07:45:58.238Z,10.0145
2023-05-10T07:47:01.478Z,7.0409
2023-05-10T07:48:04.748Z,5.4958
2023-05-10T07:49:08.016Z,4.8648
2023-05-10T07:50:11.260Z,7.9520
2023-05-10T07:51:14.557Z,8.5826
2023-05-10T07:52:17.833Z,9.6129
2023-05-10T07:53:21.139Z,11.1574
2023-05-10T07:54:24.398Z,9.8351
2023-05-10T07:55:27.643Z,8.4698
2023-05-10T07:56:30.866Z,8.8742
2023-05-10T07:57:34.376Z,12.9448
2023-05-10T07:58:37.644Z,9.2110
2023-05-10T07:59:40.882Z,12.9960
2023-05-10T08:00:44.122Z,11.6205
2023-05-10T08:01:47.380Z,9.3281
2023-05-10T08:02:50.967Z,5.8134
2023-05-10T08:03:54.372Z,9.9400
2023-05-10T08:04:57.784Z,13.2809
2023-05-10T08:06:01.028Z,14.7103
2023-05-10T08:07:04.309Z,18.1958
2023-05-10T08:08:07.543Z,14.7682
2023-05-10T08:09:10.791Z,11.7891
2023-05-10T08:10:14.299Z,7.7543
2023-05-10T08:11:17.532Z,8.6418
2023-05-10T08:12:21.066Z,15.5651
2023-05-10T08:13:24.289Z,14.4241
2023-05-10T08:14:27.557Z,17.4561
2023-05-10T08:15:30.819Z,11.1603
2023-05-10T08:16:34.141Z,11.7233
2023-05-10T08:17:37.399Z,6.6945
2023-05-10T08:18:40.726Z,9.6063
2023-05-10T08:19:43.938Z,9.2717
2023-05-10T08:20:47.162Z,10.8775
2023-05-10T08:21:50.471Z,10.1259
2023-05-10T08:22:53.720Z,5.2650
2023-05-10T08:23:56.972Z,4.4638
2023-05-10T08:25:00.195Z,9.0435
2023-05-10T08:26:03.458Z,8.8182
2023-05-10T08:27:06.735Z,6.0097
2023-05-10T08:28:11.335Z,11.3814
2023-05-10T08:29:11.472Z,12.6590
2023-05-10T08:30:14.731Z,14.3132
2023-05-10T08:31:18.008Z,8.8659
2023-05-10T08:32:21.222Z,5.1521
2023-05-10T08:33:24.471Z,7.5589
2023-05-10T08:34:27.878Z,16.7608
2023-05-10T08:35:31.126Z,17.1956
2023-05-10T08:36:34.395Z,17.9675
2023-05-10T08:37:37.635Z,15.4507
2023-05-10T08:38:40.845Z,17.8652
2023-05-10T08:39:44.372Z,11.6921
2023-05-10T08:40:47.591Z,15.0497
2023-05-10T08:41:50.829Z,9.7322
2023-05-10T08:42:54.115Z,13.7923
2023-05-10T08:43:57.394Z,10.8681
2023-05-10T08:45:00.955Z,5.0112
2023-05-10T08:46:04.284Z,5.7819
2023-05-10T08:47:07.730Z,6.2349
2023-05-10T08:48:11.157Z,8.1976
2023-05-10T08:49:14.371Z,6.6897
2023-05-10T08:50:17.639Z,11.1641
2023-05-10T08:51:20.887Z,11.1020
2023-05-10T08:52:24.154Z,5.1512
2023-05-10T08:53:27.391Z,13.6204
2023-05-10T08:54:30.657Z,15.2264
2023-05-10T08:55:34.139Z,13.2306
2023-05-10T08:56:37.366Z,11.0472
2023-05-10T08:57:40.623Z,12.6507
2023-05-10T08:58:43.899Z,16.6545
2023-05-10T08:59:47.103Z,13.9107
2023-05-10T09:00:50.358Z,8.7596
2023-05-10T09:01:53.569Z,6.8122
2023-05-10T09:02:56.846Z,14.5965
2023-05-10T09:04:00.200Z,15.5676
2023-05-10T09:05:03.771Z,22.8835
2023-05-10T09:06:07.065Z,26.2570
2023-05-10T09:07:10.293Z,15.2297
2023-05-10T09:08:13.568Z,14.1359
2023-05-10T09:09:16.851Z,11.4423
2023-05-10T09:10:20.095Z,15.1095
2023-05-10T09:11:23.348Z,14.7661
2023-05-10T09:12:26.568Z,15.7440
2023-05-10T09:13:29.832Z,9.4479
2023-05-10T09:14:33.073Z,12.4201
2023-05-10T09:15:36.570Z,11.7441
2023-05-10T09:16:39.973Z,8.8146
2023-05-10T09:17:43.343Z,11.2900
2023-05-10T09:18:46.655Z,8.0678
2023-05-10T09:19:49.900Z,10.1733
2023-05-10T09:20:53.180Z,9.3858
2023-05-10T09:21:56.393Z,9.3297
2023-05-10T09:22:59.874Z,12.5520
2023-05-10T09:24:03.148Z,9.4989
2023-05-10T09:25:06.391Z,2.3465
2023-05-10T09:26:09.667Z,7.2119
2023-05-10T09:27:12.922Z,7.1519
2023-05-10T09:28:16.492Z,6.2635
2023-05-10T09:29:19.745Z,5.4374
2023-05-10T09:30:23.019Z,5.4939
2023-05-10T09:31:26.332Z,8.0688
2023-05-10T09:32:29.562Z,10.7532
2023-05-10T09:33:32.801Z,9.3884
2023-05-10T09:34:36.048Z,5.5523
2023-05-10T09:35:39.528Z,4.8460
2023-05-10T09:36:42.796Z,5.9540
2023-05-10T09:37:46.632Z,12.7051
2023-05-10T09:38:46.202Z,6.6787
2023-05-10T09:39:49.455Z,3.3762
2023-05-10T09:40:52.728Z,5.8375
2023-05-10T09:41:55.960Z,4.7497
2023-05-10T09:42:59.429Z,7.1291
2023-05-10T09:44:02.682Z,8.4136
2023-05-10T09:45:05.952Z,7.1564
2023-05-10T09:46:09.359Z,8.0082
2023-05-10T09:47:12.612Z,3.7113
2023-05-10T09:48:15.849Z,6.5261
2023-05-10T09:49:19.105Z,5.6678
2023-05-10T09:50:22.387Z,12.6979
2023-05-10T09:51:25.610Z,10.6492
2023-05-10T09:52:28.885Z,8.9278
2023-05-10T09:53:32.275Z,6.3964
2023-05-10T09:54:35.491Z,6.6416
2023-05-10T09:55:38.742Z,6.3540
2023-05-10T09:56:42.015Z,10.3011
2023-05-10T09:57:45.245Z,4.5217
2023-05-10T09:58:48.509Z,2.8042
2023-05-10T09:59:51.732Z,4.6941
2023-05-10T10:00:55.035Z,6.8634
2023-05-10T10:01:58.360Z,5.8963
2023-05-10T10:03:01.585Z,8.4683
2023-05-10T10:04:04.836Z,5.8370
2023-05-10T10:05:08.240Z,8.0108
2023-05-10T10:06:22.700Z,6.3278
2023-05-10T10:07:13.302Z,6.7440
2023-05-10T10:08:16.814Z,6.8444
2023-05-10T10:09:20.058Z,7.2686
2023-05-10T10:10:23.301Z,4.4639
2023-05-10T10:11:26.564Z,3.6066
2023-05-10T10:12:29.805Z,2.6317
2023-05-10T10:13:33.286Z,4.8468
2023-05-10T10:14:36.551Z,5.5537
2023-05-10T10:15:39.778Z,6.4708
2023-05-10T10:16:55.514Z,4.9780
2023-05-10T10:17:44.878Z,4.1613
2023-05-10T10:18:48.167Z,4.6264
2023-05-10T10:19:51.442Z,10.3031
2023-05-10T10:20:52.793Z,5.7227
2023-05-10T10:21:56.063Z,3.8341
2023-05-10T10:22:59.273Z,6.0103
2023-05-10T10:24:02.571Z,4.9213
2023-05-10T10:25:05.839Z,8.2392
2023-05-10T10:26:09.384Z,5.8707
2023-05-10T10:27:12.601Z,8.4118
2023-05-10T10:28:15.869Z,9.3300
2023-05-10T10:29:19.121Z,4.8069
2023-05-10T10:30:22.714Z,3.9892
2023-05-10T10:31:25.988Z,6.9163
2023-05-10T10:32:29.277Z,5.3802
2023-05-10T10:33:32.629Z,6.8026
2023-05-10T10:34:35.888Z,6.8610
2023-05-10T10:35:39.142Z,7.0387
2023-05-10T10:36:42.410Z,8.9857
2023-05-10T10:37:45.642Z,3.3189
2023-05-10T10:38:48.876Z,6.5832
2023-05-10T10:39:52.125Z,6.3548
2023-05-10T10:40:55.383Z,8.1290
2023-05-10T10:41:58.620Z,6.6950
2023-05-10T10:43:02.113Z,5.2468
2023-05-10T10:44:05.348Z,7.9583
2023-05-10T10:45:08.600Z,4.4056
2023-05-10T10:46:11.899Z,7.0949
2023-05-10T10:47:15.168Z,7.6676
2023-05-10T10:48:18.454Z,4.4613
2023-05-10T10:49:21.700Z,4.9227
2023-05-10T10:50:24.952Z,9.8441
2023-05-10T10:51:28.206Z,6.9249
2023-05-10T10:52:31.477Z,8.3557
2023-05-10T10:53:35.067Z,6.5455
2023-05-10T10:54:38.328Z,5.4946
2023-05-10T10:55:41.573Z,3.4335
2023-05-10T10:56:44.836Z,8.7012
2023-05-10T10:57:48.108Z,8.4101
2023-05-10T10:58:51.573Z,6.9004
2023-05-10T10:59:54.803Z,5.4951
2023-05-10T11:00:58.067Z,6.7556
2023-05-10T11:02:01.272Z,15.1713
2023-05-10T11:03:04.539Z,13.2269
2023-05-10T11:04:08.535Z,11.2146
2023-05-10T11:05:08.093Z,5.5807
2023-05-10T11:06:11.344Z,8.1308
2023-05-10T11:07:14.598Z,5.3790
2023-05-10T11:08:15.654Z,8.8941
2023-05-10T11:09:18.919Z,6.0090
2023-05-10T11:10:22.153Z,13.9648
2023-05-10T11:11:25.394Z,11.1086
2023-05-10T11:12:28.673Z,9.2690
2023-05-10T11:13:31.970Z,8.6979
2023-05-10T11:14:35.242Z,5.6625
2023-05-10T11:15:38.491Z,12.0166
2023-05-10T11:16:41.764Z,8.9881
2023-05-10T11:17:45.017Z,8.2402
2023-05-10T11:18:50.271Z,6.0082
2023-05-10T11:19:49.849Z,5.2295
2023-05-10T11:20:53.335Z,3.6503
2023-05-10T11:21:56.602Z,3.3195
2023-05-10T11:22:59.874Z,5.5500
2023-05-10T11:24:03.119Z,5.9501
2023-05-10T11:25:06.366Z,3.7786
2023-05-10T11:26:09.610Z,6.8698
2023-05-10T11:27:12.876Z,6.9829
2023-05-10T11:28:16.158Z,6.8074
2023-05-10T11:29:19.380Z,10.8751
2023-05-10T11:30:22.648Z,8.6426
2023-05-10T11:31:25.976Z,6.6962
2023-05-10T11:32:29.226Z,4.6878
2023-05-10T11:33:32.530Z,3.9463
2023-05-10T11:34:35.823Z,3.7184
2023-05-10T11:35:40.997Z,4.8057
2023-05-10T11:36:41.957Z,1.7851
2023-05-10T11:37:45.181Z,2.5757
2023-05-10T11:38:48.441Z,6.8686
2023-05-10T11:39:51.709Z,5.4948
2023-05-10T11:40:54.970Z,11.3823
2023-05-10T11:41:58.262Z,12.4249
2023-05-10T11:43:01.513Z,10.6977
2023-05-10T11:44:04.735Z,6.1814
2023-05-10T11:45:08.006Z,7.4982
2023-05-10T11:46:11.534Z,13.4557
2023-05-10T11:47:14.789Z,9.0381
2023-05-10T11:48:18.049Z,6.5261
2023-05-10T11:49:21.284Z,5.2648
2023-05-10T11:50:24.530Z,8.0115
2023-05-10T11:51:28.031Z,3.5928
2023-05-10T11:52:31.235Z,6.6406
2023-05-10T11:53:34.493Z,7.7860
2023-05-10T11:54:37.754Z,10.5322
2023-05-10T11:55:41.049Z,9.7279
2023-05-10T11:56:44.302Z,16.1834
2023-05-10T11:57:47.525Z,11.1648
2023-05-10T11:58:50.803Z,8.9296
2023-05-10T11:59:54.065Z,15.4991
2023-05-10T12:00:57.337Z,18.0876
2023-05-10T12:02:00.622Z,12.4721
2023-05-10T12:03:04.063Z,17.1048
2023-05-10T12:04:07.532Z,14.9421
2023-05-10T12:05:11.010Z,12.3049
2023-05-10T12:06:14.292Z,10.9099
2023-05-10T12:07:17.541Z,7.2686
2023-05-10T12:08:20.823Z,7.7845
2023-05-10T12:10:24.041Z,14.0607
2023-05-10T12:11:25.328Z,15.0590
2023-05-10T12:12:28.598Z,13.6253
2023-05-10T12:13:31.870Z,12.5360
2023-05-10T12:14:35.124Z,13.9560
2023-05-10T12:15:38.395Z,13.3896
2023-05-10T12:16:42.067Z,9.5152
2023-05-10T12:17:45.376Z,10.5040
2023-05-10T12:18:48.682Z,10.0684
2023-05-10T12:19:51.918Z,5.5485
2023-05-10T12:20:55.160Z,7.4399
2023-05-10T12:21:58.403Z,4.4081
2023-05-10T12:23:01.640Z,8.8735
2023-05-10T12:24:05.127Z,5.1902
2023-05-10T12:25:08.473Z,6.8579
2023-05-10T12:26:11.746Z,5.9511
2023-05-10T12:27:14.973Z,4.2348
2023-05-10T12:28:18.226Z,6.1246
2023-05-10T12:29:21.457Z,6.6988
2023-05-10T12:30:24.729Z,6.1807
2023-05-10T12:31:28.063Z,4.2325
2023-05-10T12:32:31.404Z,7.4344
2023-05-10T12:33:34.847Z,10.8265
2023-05-10T12:34:38.143Z,10.3593
2023-05-10T12:35:43.090Z,10.0681
2023-05-10T12:36:42.681Z,10.7496
2023-05-10T12:37:45.895Z,11.3375
2023-05-10T12:38:49.202Z,8.0727
2023-05-10T12:39:52.435Z,8.4063
2023-05-10T12:40:55.729Z,7.8984
2023-05-10T12:41:58.928Z,10.9337
2023-05-10T12:43:02.215Z,8.0146
2023-05-10T12:44:03.405Z,9.1050
2023-05-10T12:45:06.657Z,9.3310
2023-05-10T12:46:09.996Z,11.9589
2023-05-10T12:47:13.350Z,10.1608
2023-05-10T12:48:16.580Z,13.3976
2023-05-10T12:49:19.919Z,11.3246
2023-05-10T12:50:23.203Z,14.8063
2023-05-10T12:51:26.471Z,14.1354
2023-05-10T12:52:29.769Z,14.4211
2023-05-10T12:53:33.009Z,12.0083
2023-05-10T12:54:36.283Z,10.5327
2023-05-10T12:55:39.599Z,12.1282
2023-05-10T12:56:43.074Z,11.6285
2023-05-10T12:57:46.345Z,12.4738
2023-05-10T12:58:49.642Z,12.9816
2023-05-10T12:59:52.912Z,12.9874
2023-05-10T13:00:56.256Z,11.2719
2023-05-10T13:01:59.557Z,10.9664
2023-05-10T13:03:02.884Z,13.1588